Time;durP1;ratioP1;P1;durP2;ratioP2;P2;SDS_P1;SDS_P2;PMS_P1;PMS_P2;Temp;Humidity;BMP_temperature;BMP_pressure;BME280_temperature;BME280_humidity;BME280_pressure;Samples;Min_cycle;Max_cycle;Signal;HPM_P1;HPM_P2
2023/11/28 06:01:17;;;;;;;0.98;0.40;;;5.80;90.10;;;;;;4528700;23;20114;-90
2023/11/28 06:03:22;;;;;;;1.48;0.50;;;5.80;90.00;;;;;;4130478;28;20134;-90
2023/11/28 06:05:31;;;;;;;0.63;0.30;;;5.80;90.00;;;;;;4147208;28;20046;-91
2023/11/28 06:07:33;;;;;;;0.95;0.38;;;5.80;90.10;;;;;;4150967;28;20053;-89
2023/11/28 06:09:37;;;;;;;1.08;0.40;;;5.80;90.20;;;;;;4149919;28;20050;-88
2023/11/28 06:11:39;;;;;;;0.80;0.40;;;5.80;90.20;;;;;;4151709;28;20046;-89
2023/11/28 06:13:41;;;;;;;2.30;0.68;;;5.80;90.40;;;;;;4155112;28;20038;-87
2023/11/28 06:18:09;;;;;;;1.02;0.38;;;5.80;90.40;;;;;;4153810;28;20050;-91
2023/11/28 06:20:14;;;;;;;1.80;0.57;;;5.80;90.50;;;;;;4142792;28;20054;-91
2023/11/28 06:22:17;;;;;;;3.42;0.60;;;5.80;90.60;;;;;;4138471;28;20050;-91
2023/11/28 06:24:18;;;;;;;1.33;0.47;;;5.80;90.90;;;;;;4139559;28;20046;-89
2023/11/28 06:26:20;;;;;;;1.75;0.55;;;5.80;91.30;;;;;;4137227;28;20050;-86
2023/11/28 06:28:21;;;;;;;2.38;0.60;;;5.70;90.20;;;;;;4136569;28;20101;-86
2023/11/28 06:30:23;;;;;;;1.92;0.50;;;5.70;90.70;;;;;;4136902;28;20054;-86
2023/11/28 06:32:25;;;;;;;1.27;0.50;;;5.60;90.00;;;;;;4119867;28;20043;-86
2023/11/28 06:34:29;;;;;;;2.03;0.50;;;5.50;90.10;;;;;;4136969;28;20047;-86
2023/11/28 06:36:31;;;;;;;1.23;0.70;;;5.40;89.70;;;;;;4136701;28;20544;-87
2023/11/28 06:38:32;;;;;;;1.85;0.70;;;5.40;89.60;;;;;;4136918;28;20094;-87
2023/11/28 06:40:34;;;;;;;1.45;0.70;;;5.40;89.80;;;;;;4136111;28;20105;-86
2023/11/28 06:42:36;;;;;;;0.93;0.50;;;5.30;90.10;;;;;;4119634;28;20049;-87
2023/11/28 06:44:38;;;;;;;1.77;0.80;;;5.30;90.20;;;;;;4136660;28;20073;-86
2023/11/28 06:46:40;;;;;;;1.73;0.80;;;5.30;90.50;;;;;;4136975;28;20546;-85
2023/11/28 06:48:41;;;;;;;1.17;0.50;;;5.20;90.70;;;;;;4137118;28;20487;-85
2023/11/28 06:50:44;;;;;;;2.15;0.73;;;5.20;90.60;;;;;;4136171;28;20081;-86
2023/11/28 06:52:46;;;;;;;1.23;0.60;;;5.20;90.70;;;;;;4136593;28;20132;-87
2023/11/28 06:54:48;;;;;;;1.52;0.80;;;5.10;90.50;;;;;;4136699;28;20061;-87
2023/11/28 06:56:48;;;;;;;1.58;0.77;;;5.00;90.40;;;;;;4137059;28;20522;-85
2023/11/28 06:58:51;;;;;;;1.70;0.70;;;5.00;90.60;;;;;;4136847;28;20058;-87
2023/11/28 07:00:53;;;;;;;2.83;0.88;;;5.10;90.90;;;;;;4135804;28;20451;-87
2023/11/28 07:02:55;;;;;;;3.00;1.00;;;5.00;90.80;;;;;;4136371;28;20097;-86
2023/11/28 07:04:57;;;;;;;3.05;1.00;;;4.90;90.50;;;;;;4137058;28;20050;-87
2023/11/28 07:06:59;;;;;;;2.05;1.00;;;4.90;90.60;;;;;;4143128;28;20046;-86
2023/11/28 07:09:01;;;;;;;2.15;0.80;;;4.90;90.80;;;;;;4150379;28;20046;-87
2023/11/28 07:11:03;;;;;;;1.98;1.00;;;4.80;90.90;;;;;;4148108;28;20046;-87
2023/11/28 07:13:04;;;;;;;2.22;1.10;;;4.80;90.50;;;;;;4136502;28;20050;-86
2023/11/28 07:15:08;;;;;;;3.53;1.00;;;4.70;90.70;;;;;;4136553;28;20130;-86
2023/11/28 07:17:10;;;;;;;2.95;1.08;;;4.70;90.30;;;;;;4136253;28;20108;-87
2023/11/28 07:19:11;;;;;;;2.78;1.10;;;4.70;90.30;;;;;;4135802;28;20050;-85
2023/11/28 07:21:15;;;;;;;2.38;1.10;;;4.70;90.70;;;;;;4135230;28;20105;-87
2023/11/28 07:23:18;;;;;;;2.17;1.00;;;4.70;90.50;;;;;;4135987;28;20104;-87
2023/11/28 07:25:20;;;;;;;2.47;1.10;;;4.70;90.70;;;;;;4135386;28;20455;-86
2023/11/28 07:27:22;;;;;;;2.85;1.13;;;4.60;90.80;;;;;;4136123;28;20058;-87
2023/11/28 07:29:23;;;;;;;1.92;0.80;;;4.60;90.70;;;;;;4135754;28;20085;-85
2023/11/28 07:31:28;;;;;;;1.92;0.80;;;4.60;90.40;;;;;;4135387;28;20050;-86
2023/11/28 07:33:30;;;;;;;1.52;0.60;;;4.50;89.30;;;;;;4135596;28;20086;-85
2023/11/28 07:35:32;;;;;;;1.20;0.47;;;4.30;87.50;;;;;;4135562;28;20502;-86
2023/11/28 07:37:34;;;;;;;0.73;0.40;;;4.00;87.00;;;;;;4135055;28;20077;-84
2023/11/28 07:39:37;;;;;;;1.23;0.50;;;4.00;87.30;;;;;;4118328;28;20051;-84
2023/11/28 07:41:39;;;;;;;1.05;0.50;;;3.90;88.50;;;;;;4135390;28;20042;-85
2023/11/28 07:43:41;;;;;;;2.10;0.60;;;4.00;88.60;;;;;;4135461;28;20552;-85
2023/11/28 07:45:43;;;;;;;1.50;0.60;;;4.00;88.60;;;;;;4135156;28;20093;-87
2023/11/28 07:47:45;;;;;;;0.90;0.40;;;3.80;87.70;;;;;;4135525;28;20120;-86
2023/11/28 07:49:47;;;;;;;0.90;0.50;;;3.70;86.50;;;;;;4118066;28;20113;-87
2023/11/28 07:51:49;;;;;;;1.27;0.60;;;3.80;86.50;;;;;;4135170;28;20435;-85
2023/11/28 07:53:51;;;;;;;1.95;0.70;;;3.80;87.70;;;;;;4138102;28;20050;-88
2023/11/28 07:55:55;;;;;;;0.93;0.60;;;3.80;88.10;;;;;;4135893;28;20460;-86
2023/11/28 07:57:56;;;;;;;1.98;0.60;;;3.80;87.70;;;;;;4135421;28;20054;-85
2023/11/28 07:59:58;;;;;;;1.65;0.70;;;3.70;86.00;;;;;;4135198;28;20050;-86
2023/11/28 08:02:00;;;;;;;1.40;0.50;;;3.70;86.10;;;;;;4134806;28;20125;-87
2023/11/28 08:04:02;;;;;;;1.13;0.50;;;3.60;86.00;;;;;;4134915;28;20054;-87
2023/11/28 08:06:06;;;;;;;1.38;0.60;;;3.50;86.10;;;;;;4135233;28;20112;-87
2023/11/28 08:08:08;;;;;;;0.98;0.50;;;3.40;86.60;;;;;;4136221;28;20046;-88
2023/11/28 08:10:11;;;;;;;1.60;0.60;;;3.30;86.80;;;;;;4135587;28;20555;-87
2023/11/28 08:12:14;;;;;;;1.50;0.70;;;3.20;86.80;;;;;;4135393;28;20042;-88
2023/11/28 08:14:16;;;;;;;1.45;0.60;;;3.30;86.80;;;;;;4135705;28;20085;-84
2023/11/28 08:16:18;;;;;;;1.23;0.52;;;3.20;86.80;;;;;;4136588;28;20113;-87
2023/11/28 08:18:21;;;;;;;1.35;0.70;;;3.10;86.70;;;;;;4134857;28;20081;-86
2023/11/28 08:20:23;;;;;;;1.15;0.55;;;3.20;87.20;;;;;;4135581;28;20125;-88
2023/11/28 08:22:25;;;;;;;1.10;0.43;;;3.10;86.70;;;;;;4135573;28;20050;-85
2023/11/28 08:24:27;;;;;;;1.27;0.50;;;3.00;86.30;;;;;;4118986;28;20057;-85
2023/11/28 08:26:29;;;;;;;1.38;0.60;;;3.00;86.80;;;;;;4139089;28;20472;-88
2023/11/28 08:28:32;;;;;;;1.05;0.60;;;3.00;87.20;;;;;;4140348;28;20451;-86
2023/11/28 08:30:33;;;;;;;2.45;0.70;;;3.00;87.70;;;;;;4122509;28;20501;-86
2023/11/28 08:32:35;;;;;;;1.98;0.70;;;3.10;87.60;;;;;;4136195;28;20097;-87
2023/11/28 08:34:37;;;;;;;2.30;0.90;;;3.00;87.90;;;;;;4135887;28;20047;-86
2023/11/28 08:36:39;;;;;;;1.70;0.68;;;3.00;88.20;;;;;;4136185;28;20105;-88
2023/11/28 08:38:41;;;;;;;1.48;0.73;;;3.00;88.50;;;;;;4124256;28;20488;-85
2023/11/28 08:40:43;;;;;;;2.92;1.00;;;3.00;88.30;;;;;;4141008;28;20050;-85
2023/11/28 08:42:45;;;;;;;2.30;0.90;;;3.00;89.10;;;;;;4122430;28;20055;-87
2023/11/28 08:44:47;;;;;;;2.15;0.90;;;3.00;89.30;;;;;;4139545;28;20160;-86
2023/11/28 08:46:49;;;;;;;1.88;1.00;;;3.00;88.50;;;;;;4147878;28;20046;-87
2023/11/28 08:48:51;;;;;;;2.38;1.10;;;3.00;88.60;;;;;;4128630;28;20050;-83
2023/11/28 08:50:52;;;;;;;2.92;1.10;;;3.00;88.30;;;;;;4142599;28;20046;-77
2023/11/28 08:52:56;;;;;;;1.98;1.00;;;3.00;88.90;;;;;;4143570;28;20062;-91
2023/11/28 08:54:59;;;;;;;1.90;0.90;;;3.10;88.70;;;;;;4137069;28;20057;-89
2023/11/28 08:57:00;;;;;;;1.90;1.00;;;3.00;87.40;;;;;;4134115;28;20141;-91
2023/11/28 08:59:02;;;;;;;1.88;1.10;;;3.00;87.40;;;;;;4127109;28;20049;-90
2023/11/28 09:01:06;;;;;;;2.22;1.20;;;3.00;88.10;;;;;;4138111;28;20054;-90
2023/11/28 09:03:08;;;;;;;1.95;1.17;;;3.00;87.80;;;;;;4136400;28;20042;-90
2023/11/28 09:05:10;;;;;;;2.00;0.90;;;3.00;88.10;;;;;;4135884;28;20058;-91
2023/11/28 09:07:12;;;;;;;2.20;1.10;;;3.00;87.90;;;;;;4139750;28;20054;-90
2023/11/28 09:09:14;;;;;;;2.00;1.00;;;3.00;88.00;;;;;;4136247;28;20117;-90
2023/11/28 09:11:15;;;;;;;3.15;1.08;;;3.10;88.00;;;;;;4138839;28;20061;-91
2023/11/28 09:13:17;;;;;;;1.95;1.02;;;3.10;88.10;;;;;;4136594;28;20105;-89
2023/11/28 09:15:18;;;;;;;2.05;1.15;;;3.10;88.40;;;;;;4139639;28;20050;-91
2023/11/28 09:17:22;;;;;;;1.98;1.00;;;3.00;88.30;;;;;;4138871;28;20451;-87
2023/11/28 09:19:22;;;;;;;1.98;0.98;;;3.00;89.00;;;;;;4136546;28;20069;-89
2023/11/28 09:21:24;;;;;;;2.35;1.05;;;3.00;89.00;;;;;;4137061;28;20136;-91
2023/11/28 09:23:27;;;;;;;2.40;1.10;;;3.00;89.20;;;;;;4137110;28;20121;-89
2023/11/28 09:25:28;;;;;;;1.75;0.88;;;3.00;89.00;;;;;;4135549;28;20058;-88
2023/11/28 09:27:30;;;;;;;2.55;0.90;;;3.00;89.20;;;;;;4135406;28;20121;-90
2023/11/28 09:29:32;;;;;;;2.10;1.00;;;3.00;89.40;;;;;;4133171;28;20042;-88
2023/11/28 09:31:36;;;;;;;1.90;0.90;;;2.90;89.80;;;;;;4135229;28;20076;-87
2023/11/28 09:33:40;;;;;;;1.98;0.90;;;2.90;90.00;;;;;;4136944;28;20050;-90
2023/11/28 09:35:44;;;;;;;2.00;0.90;;;2.90;90.00;;;;;;4137532;28;20054;-89
2023/11/28 09:37:46;;;;;;;1.20;0.70;;;2.90;90.20;;;;;;4136964;28;20424;-88
2023/11/28 09:39:47;;;;;;;1.30;0.70;;;2.90;88.40;;;;;;4134916;28;20054;-89
2023/11/28 09:41:49;;;;;;;2.28;0.80;;;2.90;89.50;;;;;;4135228;28;20423;-90
2023/11/28 09:43:52;;;;;;;2.20;0.98;;;2.80;89.90;;;;;;4134643;28;20188;-87
2023/11/28 09:45:57;;;;;;;1.83;0.70;;;2.80;89.10;;;;;;4119976;28;20051;-87
2023/11/28 09:48:06;;;;;;;1.77;0.90;;;2.90;89.40;;;;;;4141195;28;20050;-91
2023/11/28 09:50:12;;;;;;;2.65;0.80;;;3.00;89.30;;;;;;4138531;28;20137;-92
2023/11/28 09:52:15;;;;;;;2.70;0.80;;;2.90;88.40;;;;;;4135901;28;20129;-89
2023/11/28 09:54:19;;;;;;;1.75;0.80;;;2.90;88.70;;;;;;4134491;28;20059;-89
2023/11/28 09:56:22;;;;;;;2.33;0.85;;;2.80;88.50;;;;;;4135320;28;20066;-88
2023/11/28 09:58:24;;;;;;;2.17;0.70;;;2.80;88.00;;;;;;4143614;28;20069;-90
2023/11/28 10:00:26;;;;;;;1.95;0.80;;;2.80;89.30;;;;;;4142139;28;20058;-85
2023/11/28 10:02:28;;;;;;;2.53;0.95;;;2.80;89.30;;;;;;4140897;28;20106;-90
2023/11/28 10:04:31;;;;;;;1.50;0.80;;;2.80;89.30;;;;;;4140045;28;20112;-91
2023/11/28 10:06:35;;;;;;;2.47;0.93;;;2.80;89.40;;;;;;4140183;28;20050;-89
2023/11/28 10:08:39;;;;;;;2.15;0.90;;;2.80;89.80;;;;;;4126804;28;20058;-86
2023/11/28 10:10:44;;;;;;;1.50;0.80;;;2.90;89.50;;;;;;4139257;28;20047;-86
2023/11/28 10:12:46;;;;;;;1.65;0.82;;;2.90;88.80;;;;;;4131707;28;20088;-84
2023/11/28 10:14:48;;;;;;;2.70;1.00;;;2.80;88.40;;;;;;4131992;28;20101;-86
2023/11/28 10:16:51;;;;;;;1.90;1.00;;;2.90;88.80;;;;;;4131531;28;20054;-83
2023/11/28 10:18:53;;;;;;;2.75;0.90;;;2.80;89.20;;;;;;4131237;28;20203;-85
2023/11/28 10:20:55;;;;;;;2.15;0.98;;;2.80;89.10;;;;;;4131341;28;20058;-84
2023/11/28 10:22:58;;;;;;;2.33;1.10;;;2.90;89.00;;;;;;4131512;28;20054;-86
2023/11/28 10:25:00;;;;;;;2.70;1.05;;;2.90;89.00;;;;;;4131439;28;20057;-84
2023/11/28 10:27:04;;;;;;;3.50;1.33;;;2.80;88.20;;;;;;4132192;28;20046;-86
2023/11/28 10:29:07;;;;;;;3.15;1.20;;;2.80;88.50;;;;;;4115530;28;20043;-86
2023/11/28 10:31:07;;;;;;;3.35;1.50;;;2.80;87.40;;;;;;4131764;28;20202;-83
2023/11/28 10:33:09;;;;;;;2.30;1.10;;;2.70;87.10;;;;;;4131023;28;20082;-83
2023/11/28 10:35:11;;;;;;;3.08;1.00;;;2.80;87.20;;;;;;4131208;28;20112;-85
2023/11/28 10:37:13;;;;;;;1.95;0.80;;;2.80;87.80;;;;;;4131156;28;20066;-84
2023/11/28 10:39:19;;;;;;;2.83;0.82;;;2.90;87.20;;;;;;4130939;28;20101;-84
2023/11/28 10:41:31;;;;;;;2.10;0.90;;;2.80;88.00;;;;;;4131092;28;20051;-85
2023/11/28 10:43:33;;;;;;;3.28;1.10;;;2.90;86.90;;;;;;4128811;28;20050;-83
2023/11/28 10:45:35;;;;;;;2.30;1.10;;;2.90;86.60;;;;;;4131692;28;20069;-82
2023/11/28 10:47:39;;;;;;;2.80;1.17;;;2.90;86.80;;;;;;4133826;28;20423;-82
2023/11/28 10:49:41;;;;;;;2.75;1.10;;;2.80;86.80;;;;;;4134011;28;20413;-82
2023/11/28 10:51:43;;;;;;;2.63;1.10;;;2.80;87.10;;;;;;4133998;28;20813;-84
2023/11/28 10:53:47;;;;;;;4.18;1.20;;;2.80;88.60;;;;;;4133705;28;20050;-86
2023/11/28 10:55:52;;;;;;;2.50;1.25;;;2.80;88.80;;;;;;4134100;28;20451;-83
2023/11/28 10:58:01;;;;;;;2.40;1.20;;;2.70;89.10;;;;;;4133937;28;20046;-84
2023/11/28 11:00:09;;;;;;;3.65;1.20;;;2.70;88.70;;;;;;4133960;28;20070;-83
2023/11/28 11:02:15;;;;;;;3.30;1.25;;;2.80;89.00;;;;;;4133616;28;20427;-84
2023/11/28 11:04:17;;;;;;;2.28;1.08;;;2.70;88.50;;;;;;4133446;28;20065;-86
2023/11/28 11:06:19;;;;;;;2.60;1.35;;;2.80;86.90;;;;;;4133828;28;20046;-86
2023/11/28 11:08:23;;;;;;;2.60;1.10;;;2.80;87.00;;;;;;4133579;28;20050;-83
2023/11/28 11:10:24;;;;;;;2.47;1.23;;;2.70;86.50;;;;;;4133681;28;20178;-83
2023/11/28 11:12:27;;;;;;;2.88;1.60;;;2.60;87.10;;;;;;4134013;28;20046;-84
2023/11/28 11:14:43;;;;;;;2.65;1.30;;;2.60;87.50;;;;;;4133689;28;20050;-84
2023/11/28 11:16:47;;;;;;;;;;;2.60;87.60;;;;;;4135366;28;20117;-83
2023/11/28 11:18:52;;;;;;;2.95;1.60;;;2.60;88.10;;;;;;4133979;28;19929;-84
2023/11/28 11:21:00;;;;;;;2.85;1.40;;;2.70;88.60;;;;;;4134594;28;20480;-85
2023/11/28 11:23:03;;;;;;;3.50;1.80;;;2.60;88.80;;;;;;4134127;28;20042;-85
2023/11/28 11:25:06;;;;;;;3.97;1.77;;;2.60;89.60;;;;;;4134284;28;20054;-84
2023/11/28 11:27:08;;;;;;;2.88;1.80;;;2.70;89.70;;;;;;4133752;28;20073;-85
2023/11/28 11:29:20;;;;;;;3.05;1.77;;;2.60;90.00;;;;;;4133499;28;20050;-84
2023/11/28 11:31:23;;;;;;;3.42;1.85;;;2.60;90.10;;;;;;4116488;28;20057;-86
2023/11/28 11:33:25;;;;;;;3.35;1.70;;;2.50;90.20;;;;;;4134543;28;20054;-86
2023/11/28 11:35:26;;;;;;;4.05;1.70;;;2.50;90.10;;;;;;4134304;28;20499;-85
2023/11/28 11:37:32;;;;;;;3.60;1.65;;;2.50;89.90;;;;;;4133915;28;20054;-86
2023/11/28 11:39:35;;;;;;;3.85;1.60;;;2.60;89.30;;;;;;4133313;28;20159;-85
2023/11/28 11:41:40;;;;;;;3.00;1.80;;;2.50;88.50;;;;;;4134058;28;20058;-86
2023/11/28 11:43:43;;;;;;;3.33;1.83;;;2.50;88.20;;;;;;4132417;28;20137;-85
2023/11/28 11:45:48;;;;;;;3.65;2.15;;;2.50;88.80;;;;;;4141933;28;20061;-87
2023/11/28 11:47:51;;;;;;;3.17;2.00;;;2.50;90.20;;;;;;4145218;28;20105;-84
2023/11/28 11:49:55;;;;;;;3.13;1.80;;;2.50;89.40;;;;;;4142350;28;20050;-86
2023/11/28 11:51:57;;;;;;;3.30;2.15;;;2.50;89.40;;;;;;4134698;28;20062;-85
2023/11/28 11:54:00;;;;;;;5.95;2.10;;;2.40;89.60;;;;;;4133988;28;20503;-86
2023/11/28 11:56:02;;;;;;;4.22;2.28;;;2.40;89.40;;;;;;4133838;28;20050;-85
2023/11/28 11:58:04;;;;;;;3.17;1.92;;;2.50;90.00;;;;;;4134967;28;20415;-85
2023/11/28 12:00:07;;;;;;;4.25;2.20;;;2.50;89.50;;;;;;4136502;28;20535;-85
2023/11/28 12:02:11;;;;;;;4.22;2.13;;;2.60;89.70;;;;;;4133544;28;20058;-84
2023/11/28 12:04:14;;;;;;;3.38;2.10;;;2.60;89.60;;;;;;4116477;28;20043;-86
2023/11/28 12:06:15;;;;;;;3.20;2.05;;;2.60;89.10;;;;;;4132872;28;20508;-86
2023/11/28 12:08:18;;;;;;;4.30;2.10;;;2.60;89.00;;;;;;4133247;28;20064;-85
2023/11/28 12:10:19;;;;;;;3.20;2.13;;;2.50;89.00;;;;;;4133450;28;20154;-85
2023/11/28 12:12:21;;;;;;;4.88;2.33;;;2.50;89.70;;;;;;4133195;28;20483;-84
2023/11/28 12:14:24;;;;;;;3.40;2.00;;;2.40;88.60;;;;;;4132880;28;20054;-85
2023/11/28 12:16:26;;;;;;;4.85;2.20;;;2.40;88.60;;;;;;4133151;28;20058;-84
2023/11/28 12:18:30;;;;;;;4.90;2.22;;;2.40;88.40;;;;;;4132312;28;20082;-84
2023/11/28 12:20:32;;;;;;;3.47;2.10;;;2.40;88.50;;;;;;4132789;28;20082;-85
2023/11/28 12:22:34;;;;;;;4.15;2.40;;;2.40;87.90;;;;;;4132763;28;20138;-84
2023/11/28 12:24:36;;;;;;;3.95;2.33;;;2.40;86.80;;;;;;4132758;28;20145;-85
2023/11/28 12:26:40;;;;;;;3.58;2.00;;;2.40;86.70;;;;;;4132835;28;20052;-85
2023/11/28 12:28:42;;;;;;;3.72;2.17;;;2.40;86.90;;;;;;4132920;28;20462;-85
2023/11/28 12:30:44;;;;;;;4.32;2.50;;;2.40;87.20;;;;;;4132389;28;20046;-85
2023/11/28 12:32:47;;;;;;;5.20;2.35;;;2.40;87.20;;;;;;4132402;28;20535;-86
2023/11/28 12:34:51;;;;;;;3.45;2.13;;;2.50;87.20;;;;;;4132608;28;20058;-84
2023/11/28 12:36:56;;;;;;;3.95;2.47;;;2.50;87.10;;;;;;4132646;28;20054;-86
2023/11/28 12:38:59;;;;;;;3.67;2.33;;;2.50;86.00;;;;;;4132330;28;20046;-85
2023/11/28 12:41:01;;;;;;;4.78;2.88;;;2.50;86.60;;;;;;4132493;28;20088;-85
2023/11/28 12:43:03;;;;;;;4.00;2.25;;;2.50;86.90;;;;;;4131899;28;20484;-85
2023/11/28 12:45:07;;;;;;;3.63;2.25;;;2.50;86.30;;;;;;4130777;28;20476;-80
2023/11/28 12:47:12;;;;;;;4.38;2.85;;;2.50;86.30;;;;;;4132072;28;20145;-84
2023/11/28 12:49:14;;;;;;;4.28;2.70;;;2.50;86.70;;;;;;4132598;28;20046;-87
2023/11/28 12:51:18;;;;;;;3.95;2.58;;;2.50;87.40;;;;;;4132551;28;20109;-86
2023/11/28 12:53:22;;;;;;;4.82;2.67;;;2.50;88.20;;;;;;4132548;28;20043;-83
2023/11/28 12:55:24;;;;;;;3.75;2.50;;;2.50;88.80;;;;;;4133319;28;20046;-87
2023/11/28 12:57:25;;;;;;;4.18;2.95;;;2.50;89.20;;;;;;4133818;28;20129;-86
2023/11/28 12:59:27;;;;;;;3.80;2.30;;;2.50;89.40;;;;;;4132737;28;20050;-87
2023/11/28 13:01:29;;;;;;;4.40;2.90;;;2.60;89.20;;;;;;4132191;28;20515;-88
2023/11/28 13:03:32;;;;;;;4.78;2.53;;;2.60;88.90;;;;;;4132014;28;20084;-87
2023/11/28 13:05:34;;;;;;;6.03;3.30;;;2.60;89.00;;;;;;4115342;28;20500;-86
2023/11/28 13:07:37;;;;;;;4.72;3.08;;;2.60;88.80;;;;;;4132691;28;20057;-87
2023/11/28 13:09:39;;;;;;;4.95;3.45;;;2.60;88.40;;;;;;4132373;28;20066;-85
2023/11/28 13:11:42;;;;;;;4.90;3.10;;;2.60;88.40;;;;;;4133202;28;20464;-85
2023/11/28 13:13:44;;;;;;;4.70;3.25;;;2.40;87.50;;;;;;4132814;28;20046;-83
2023/11/28 13:15:46;;;;;;;6.85;3.80;;;2.40;88.20;;;;;;4131716;28;20050;-85
2023/11/28 13:17:48;;;;;;;6.43;3.70;;;2.40;87.70;;;;;;4116113;28;20102;-86
2023/11/28 13:19:50;;;;;;;5.68;4.03;;;2.40;88.20;;;;;;4115408;28;20063;-80
2023/11/28 13:21:53;;;;;;;5.47;4.20;;;2.40;88.10;;;;;;4116263;28;20491;-83
2023/11/28 13:23:56;;;;;;;5.53;4.00;;;2.30;88.10;;;;;;4116231;28;20050;-85
2023/11/28 13:25:58;;;;;;;5.47;3.72;;;2.30;87.80;;;;;;4116281;28;20051;-85
2023/11/28 13:28:01;;;;;;;6.43;4.00;;;2.30;87.50;;;;;;4116373;28;20678;-87
2023/11/28 13:30:06;;;;;;;5.70;4.28;;;2.30;87.50;;;;;;4120696;28;20054;-86
2023/11/28 13:32:08;;;;;;;8.43;4.43;;;2.30;87.60;;;;;;4129089;28;20050;-86
2023/11/28 13:34:12;;;;;;;6.20;4.30;;;2.40;87.20;;;;;;4126908;28;20051;-86
2023/11/28 13:36:14;;;;;;;5.60;4.20;;;2.40;87.80;;;;;;4116981;28;20523;-87
2023/11/28 13:38:16;;;;;;;5.60;3.83;;;2.50;86.10;;;;;;4116138;28;20483;-85
2023/11/28 13:40:19;;;;;;;5.65;4.10;;;2.40;85.70;;;;;;4116349;28;20047;-87
2023/11/28 13:42:21;;;;;;;6.63;4.25;;;2.50;86.20;;;;;;4115483;28;20046;-86
2023/11/28 13:44:23;;;;;;;6.35;4.10;;;2.50;86.10;;;;;;4114397;28;20046;-87
2023/11/28 13:46:24;;;;;;;5.65;4.22;;;2.60;86.10;;;;;;4115668;28;20183;-85
2023/11/28 13:48:27;;;;;;;5.65;4.00;;;2.60;86.70;;;;;;4116162;28;20046;-84
2023/11/28 13:50:29;;;;;;;5.00;3.53;;;2.60;86.10;;;;;;4115610;28;20043;-86
2023/11/28 13:52:31;;;;;;;5.00;3.58;;;2.60;85.60;;;;;;4115686;28;20105;-85
2023/11/28 13:54:35;;;;;;;5.22;3.58;;;2.60;84.20;;;;;;4115492;28;20057;-84
2023/11/28 13:56:38;;;;;;;5.32;3.80;;;2.60;84.50;;;;;;4115708;28;20047;-85
2023/11/28 13:58:40;;;;;;;5.20;3.60;;;2.60;84.40;;;;;;4115080;28;20101;-87
2023/11/28 14:00:42;;;;;;;5.80;4.00;;;2.60;84.30;;;;;;4131726;28;20101;-84
2023/11/28 14:02:44;;;;;;;5.03;3.40;;;2.70;84.40;;;;;;4131760;28;20046;-84
2023/11/28 14:04:46;;;;;;;5.07;3.30;;;2.60;83.90;;;;;;4131697;28;20379;-84
2023/11/28 14:06:48;;;;;;;4.80;3.33;;;2.60;83.60;;;;;;4131106;28;20050;-84
2023/11/28 14:08:49;;;;;;;5.60;3.50;;;2.60;84.00;;;;;;4131152;28;20081;-85
2023/11/28 14:10:52;;;;;;;4.70;3.20;;;2.60;83.40;;;;;;4131827;28;20560;-84
2023/11/28 14:12:56;;;;;;;7.38;3.70;;;2.60;83.10;;;;;;4131654;28;20116;-87
2023/11/28 14:14:57;;;;;;;5.00;3.38;;;2.60;83.20;;;;;;4131913;28;20052;-84
2023/11/28 14:16:59;;;;;;;5.20;3.50;;;2.50;83.60;;;;;;4131685;28;20552;-82
2023/11/28 14:19:01;;;;;;;5.25;3.60;;;2.60;83.90;;;;;;4130341;28;20050;-83
2023/11/28 14:21:03;;;;;;;6.05;4.53;;;2.50;83.70;;;;;;4132950;28;20050;-83
2023/11/28 14:23:06;;;;;;;5.53;3.88;;;2.50;83.40;;;;;;4134758;28;20456;-84
2023/11/28 14:25:13;;;;;;;5.38;3.85;;;2.50;83.60;;;;;;4134476;28;20081;-83
2023/11/28 14:27:15;;;;;;;5.75;4.13;;;2.50;83.90;;;;;;4118278;28;20047;-83
2023/11/28 14:29:18;;;;;;;5.50;4.30;;;2.50;83.80;;;;;;4116719;28;20050;-83
2023/11/28 14:31:20;;;;;;;5.35;3.60;;;2.50;83.80;;;;;;4134021;28;20050;-82
2023/11/28 14:33:22;;;;;;;4.90;3.58;;;2.40;83.00;;;;;;4133868;28;20061;-83
2023/11/28 14:35:24;;;;;;;4.85;3.45;;;2.40;82.90;;;;;;4134025;28;20050;-83
2023/11/28 14:37:26;;;;;;;6.07;4.28;;;2.40;82.80;;;;;;4133820;28;20116;-84
2023/11/28 14:39:27;;;;;;;5.78;3.88;;;2.30;82.80;;;;;;4133682;28;20659;-83
2023/11/28 14:41:30;;;;;;;5.38;3.95;;;2.40;82.90;;;;;;4133924;28;20116;-83
2023/11/28 14:43:32;;;;;;;5.55;4.00;;;2.40;82.70;;;;;;4132922;28;20116;-83
2023/11/28 14:45:35;;;;;;;5.70;4.20;;;2.40;82.80;;;;;;4134765;28;20102;-83
2023/11/28 14:47:37;;;;;;;5.43;4.22;;;2.40;82.70;;;;;;4134420;28;20056;-83
2023/11/28 14:49:39;;;;;;;5.60;4.22;;;2.40;83.00;;;;;;4134723;28;20077;-84
2023/11/28 14:51:40;;;;;;;5.72;4.30;;;2.40;83.00;;;;;;4134581;28;20091;-84
2023/11/28 14:53:42;;;;;;;6.93;4.63;;;2.40;83.60;;;;;;4134562;28;20092;-85
2023/11/28 14:55:44;;;;;;;6.47;4.63;;;2.40;83.40;;;;;;4134217;28;20046;-85
2023/11/28 14:57:46;;;;;;;6.45;4.57;;;2.40;83.80;;;;;;4134612;28;20117;-84
2023/11/28 14:59:48;;;;;;;6.45;4.70;;;2.40;84.00;;;;;;4133680;28;20408;-83
2023/11/28 15:01:52;;;;;;;7.00;4.85;;;2.40;83.40;;;;;;4133945;28;20058;-85
2023/11/28 15:03:54;;;;;;;6.85;4.75;;;2.40;83.60;;;;;;4132347;28;20097;-83
2023/11/28 15:05:57;;;;;;;6.45;4.85;;;2.50;83.70;;;;;;4130936;28;20048;-88
2023/11/28 15:07:59;;;;;;;6.13;4.90;;;2.40;83.10;;;;;;4135467;28;20053;-85
2023/11/28 15:10:03;;;;;;;5.95;4.40;;;2.30;83.10;;;;;;4134043;28;20058;-82
2023/11/28 15:12:58;;;;;;;6.55;4.70;;;2.30;83.40;;;;;;4134494;28;20073;-87
2023/11/28 15:15:12;;;;;;;6.25;4.68;;;2.30;83.80;;;;;;4132949;28;20073;-85
2023/11/28 15:17:14;;;;;;;6.32;4.70;;;2.30;83.80;;;;;;4115525;28;20508;-80
2023/11/28 15:19:17;;;;;;;10.70;4.82;;;2.40;84.00;;;;;;4133486;28;20090;-82
2023/11/28 15:21:19;;;;;;;7.07;4.85;;;2.40;83.80;;;;;;4133399;28;20061;-81
2023/11/28 15:23:21;;;;;;;7.75;5.13;;;2.40;83.70;;;;;;4116063;28;20134;-85
2023/11/28 15:25:23;;;;;;;6.65;5.07;;;2.40;83.60;;;;;;4133277;28;20050;-85
2023/11/28 15:27:25;;;;;;;7.38;5.28;;;2.40;83.70;;;;;;4131785;28;20053;-82
2023/11/28 15:29:28;;;;;;;8.18;5.10;;;2.50;83.40;;;;;;4134288;28;20069;-84
2023/11/28 15:31:31;;;;;;;7.90;5.57;;;2.50;83.00;;;;;;4133660;28;20053;-83
2023/11/28 15:33:36;;;;;;;8.50;5.30;;;2.50;83.00;;;;;;4132710;28;20081;-81
2023/11/28 15:35:38;;;;;;;7.10;5.30;;;2.50;82.50;;;;;;4133378;28;20043;-81
2023/11/28 15:37:41;;;;;;;6.30;4.45;;;2.50;82.20;;;;;;4115347;28;20318;-81
2023/11/28 15:39:43;;;;;;;5.75;3.83;;;2.50;81.90;;;;;;4133060;28;20043;-84
2023/11/28 15:41:45;;;;;;;6.82;4.63;;;2.50;81.10;;;;;;4132250;28;20552;-83
2023/11/28 15:43:47;;;;;;;5.95;4.15;;;2.50;81.10;;;;;;4131787;28;20054;-82
2023/11/28 15:45:49;;;;;;;5.60;4.10;;;2.50;81.20;;;;;;4133937;28;20480;-85
2023/11/28 15:47:51;;;;;;;5.63;4.10;;;2.50;80.80;;;;;;4116476;28;20164;-82
2023/11/28 15:49:54;;;;;;;5.88;3.90;;;2.60;81.40;;;;;;4132472;28;20403;-83
2023/11/28 15:51:56;;;;;;;5.60;4.15;;;2.60;80.50;;;;;;4130959;28;20480;-81
2023/11/28 15:53:58;;;;;;;7.00;4.80;;;2.60;80.30;;;;;;4133798;28;20085;-83
2023/11/28 15:56:00;;;;;;;6.20;4.55;;;2.60;80.40;;;;;;4134486;28;20073;-81
2023/11/28 15:58:02;;;;;;;6.38;4.70;;;2.60;80.70;;;;;;4131812;28;20050;-82
2023/11/28 16:00:06;;;;;;;6.82;4.57;;;2.70;80.90;;;;;;4137962;28;20105;-84
2023/11/28 16:02:10;;;;;;;5.82;4.40;;;2.60;80.30;;;;;;4121127;28;20059;-83
2023/11/28 16:04:12;;;;;;;5.75;4.18;;;2.60;80.50;;;;;;4125927;28;20460;-82
2023/11/28 16:06:19;;;;;;;5.55;4.15;;;2.60;79.80;;;;;;4115833;28;20058;-81
2023/11/28 16:08:21;;;;;;;5.50;3.83;;;2.60;80.00;;;;;;4135406;28;20081;-82
2023/11/28 16:10:23;;;;;;;7.95;4.05;;;2.50;78.80;;;;;;4133329;28;20492;-83
2023/11/28 16:12:25;;;;;;;5.03;3.95;;;2.60;79.10;;;;;;4133495;28;20057;-82
2023/11/28 16:14:27;;;;;;;6.55;4.68;;;2.60;79.00;;;;;;4133281;28;20077;-83
2023/11/28 16:16:29;;;;;;;7.47;4.93;;;2.60;78.90;;;;;;4122196;28;20416;-82
2023/11/28 16:18:31;;;;;;;6.40;4.72;;;2.60;79.10;;;;;;4131070;28;20097;-83
2023/11/28 16:20:33;;;;;;;6.57;4.53;;;2.60;79.00;;;;;;4131201;28;20459;-82
2023/11/28 16:22:37;;;;;;;5.93;4.22;;;2.50;78.80;;;;;;4134713;28;20055;-83
2023/11/28 16:24:41;;;;;;;6.82;4.97;;;2.60;78.70;;;;;;4134748;28;20092;-84
2023/11/28 16:26:42;;;;;;;7.38;5.10;;;2.60;79.20;;;;;;4116347;28;20062;-83
2023/11/28 16:28:44;;;;;;;6.88;4.88;;;2.60;79.10;;;;;;4132107;28;20385;-82
2023/11/28 16:30:45;;;;;;;6.28;4.55;;;2.60;78.90;;;;;;4132424;28;20050;-82
2023/11/28 16:32:47;;;;;;;10.90;5.25;;;2.60;79.00;;;;;;4132501;28;20113;-83
2023/11/28 16:34:49;;;;;;;6.40;4.68;;;2.60;79.10;;;;;;4132690;28;20104;-81
2023/11/28 16:36:51;;;;;;;6.65;4.97;;;2.50;78.80;;;;;;4133225;28;20116;-83
2023/11/28 16:38:55;;;;;;;8.07;4.90;;;2.50;78.50;;;;;;4132345;28;20145;-81
2023/11/28 16:40:57;;;;;;;6.82;4.90;;;2.60;78.50;;;;;;4131456;28;20085;-83
2023/11/28 16:42:58;;;;;;;6.60;4.70;;;2.50;78.80;;;;;;4131433;28;20042;-84
2023/11/28 16:45:02;;;;;;;6.68;4.90;;;2.50;79.20;;;;;;4130663;28;20412;-82
2023/11/28 16:47:05;;;;;;;6.78;5.03;;;2.50;79.20;;;;;;4131427;28;20133;-81
2023/11/28 16:49:07;;;;;;;6.97;5.03;;;2.50;79.10;;;;;;4131754;28;20054;-85
2023/11/28 16:51:12;;;;;;;8.05;5.53;;;2.50;79.10;;;;;;4132440;28;20050;-83